Onweer radar Meer informatie blitzortung!


Regen radar Meer informatie rain snow radar



METAR rapporten vliegvelden

   
EHRD - Rotterdam
Gewijzigd: 28-03-2020 14:55
Licht bewolkt  
Licht bewolkt  
   Wind: NNO 17 km/h
Wind: NNO 17 km/h
Temperatuur: 11°C
Dauwpunt: 3°C
Vochtigheid: 58%
Barometer: 1025 hPa
Bewolking: Few Clouds
Zicht: meer dan 10 km
Bewolking: Licht bewolkt 3100 ft
EHRD 281355Z AUTO 02017KT 340V070 9999 FEW031 11/03 Q1025 NOSIG
EBAW - Antwerpen
Gewijzigd: 28-03-2020 15:20
Helder  
Helder  
   Wind: Noorden 14 km/h
Wind: Noorden 14 km/h
Temperatuur: 13°C
Dauwpunt: 2°C
Vochtigheid: 47%
Barometer: 1023 hPa
Zicht: meer dan 10 km
Bewolking: Helder ft
EBAW 281420Z 01014KT CAVOK 13/02 Q1023 NOSIG
EHAM - Amsterdam
Gewijzigd: 28-03-2020 15:25
Licht bewolkt  
Licht bewolkt  
   Wind: NNO 20 km/h
Wind: NNO 20 km/h
Temperatuur: 10°C
Voelt als: 6°C
Dauwpunt: 3°C
Vochtigheid: 62%
Barometer: 1026 hPa
Bewolking: Few Clouds
Zicht: meer dan 10 km
Bewolking: Licht bewolkt 2600 ft
EHAM 281425Z 03020KT 360V060 9999 FEW026 10/03 Q1026 NOSIG
EHEH - Eindhoven
Gewijzigd: 28-03-2020 15:25
Helder  
Helder  
   Wind: NNO 14 km/h
Wind: NNO 14 km/h
Temperatuur: 14°C
Dauwpunt: 0°C
Vochtigheid: 39%
Barometer: 1023 hPa
Bewolking: Clear
Zicht: meer dan 10 km
Bewolking: Helder ft
EHEH 281425Z AUTO 02014KT 350V070 9999 NCD 14/M00 Q1023 BLU 03014G26KT CAVOK
  

Script ontwikkeld door  Saratoga-weather.org Aangepast voor de template door  Weerstation Leuven

U vindt ons ook hier:

Het Weer Aktueel

Apparatuur in gebruik:

Weerstation
Davis VP2

Weerprogramma
Cumulus

Weercomputer
Pipo X9 with Windows 10

Davis VP2

Cumulus

Pipo X9 with Windows 10